Time;durP1;ratioP1;P1;durP2;ratioP2;P2;SDS_P1;SDS_P2;PMS_P1;PMS_P2;Temp;Humidity;BMP_temperature;BMP_pressure;BME280_temperature;BME280_humidity;BME280_pressure;Samples;Min_cycle;Max_cycle;Signal;HPM_P1;HPM_P2
2023/05/18 00:02:22;;;;;;;12.13;3.17;;;5.40;99.90;;;;;;5118680;27;20045;-69
2023/05/18 00:04:49;;;;;;;10.63;3.35;;;5.40;99.90;;;;;;5084246;27;20053;-70
2023/05/18 00:07:15;;;;;;;6.95;2.83;;;5.40;99.90;;;;;;5136342;27;20054;-69
2023/05/18 00:09:41;;;;;;;9.98;2.33;;;5.40;99.90;;;;;;5118260;27;20047;-69
2023/05/18 00:12:09;;;;;;;8.40;2.50;;;5.30;99.90;;;;;;5100863;27;20426;-68
2023/05/18 00:14:35;;;;;;;12.15;2.40;;;5.30;99.90;;;;;;5117070;27;20050;-68
2023/05/18 00:17:04;;;;;;;8.25;1.90;;;5.30;99.90;;;;;;5118078;27;20047;-69
2023/05/18 00:19:32;;;;;;;9.77;1.90;;;5.20;99.90;;;;;;5117575;27;20377;-69
2023/05/18 00:21:57;;;;;;;6.80;1.80;;;5.30;99.90;;;;;;5067544;27;20396;-68
2023/05/18 00:24:24;;;;;;;10.90;2.53;;;5.30;99.90;;;;;;5084615;27;20054;-68
2023/05/18 00:26:52;;;;;;;14.25;2.05;;;5.20;99.90;;;;;;5135059;27;20059;-69
2023/05/18 00:29:18;;;;;;;;;;;5.20;99.90;;;;;;5100927;27;20053;-68
2023/05/18 00:31:44;;;;;;;8.02;2.13;;;5.20;99.90;;;;;;5117532;27;20493;-69
2023/05/18 00:34:15;;;;;;;9.05;2.13;;;5.20;99.90;;;;;;5099963;27;20051;-69
2023/05/18 00:36:41;;;;;;;13.13;2.45;;;5.20;99.90;;;;;;5117619;27;20500;-69
2023/05/18 00:39:13;;;;;;;8.15;1.95;;;5.10;99.90;;;;;;5118266;27;20393;-68
2023/05/18 00:41:39;;;;;;;12.90;2.40;;;5.10;99.90;;;;;;5098674;27;20062;-68
2023/05/18 00:44:11;;;;;;;8.65;2.25;;;5.10;99.90;;;;;;5085064;27;20042;-68
2023/05/18 00:46:38;;;;;;;10.75;2.25;;;5.10;99.90;;;;;;5117286;27;20047;-68
2023/05/18 00:49:04;;;;;;;7.07;2.45;;;5.10;99.90;;;;;;5115922;27;20058;-68
2023/05/18 00:51:32;;;;;;;11.63;2.15;;;5.10;99.90;;;;;;5100200;27;20138;-68
2023/05/18 00:54:00;;;;;;;12.23;2.60;;;5.00;99.90;;;;;;5117040;27;20131;-68
2023/05/18 00:56:27;;;;;;;10.93;2.33;;;5.00;99.90;;;;;;5099800;27;20071;-69
2023/05/18 00:58:56;;;;;;;10.52;2.28;;;5.00;99.90;;;;;;5082885;27;20039;-68
2023/05/18 01:01:35;;;;;;;7.03;2.17;;;5.00;99.90;;;;;;5116747;27;20038;-68
2023/05/18 01:04:03;;;;;;;15.73;2.40;;;5.00;99.90;;;;;;5099362;27;20087;-68
2023/05/18 01:06:31;;;;;;;9.30;2.38;;;4.90;99.90;;;;;;5134632;27;20041;-68
2023/05/18 01:09:01;;;;;;;10.15;2.25;;;4.90;99.90;;;;;;5099953;27;20099;-68
2023/05/18 01:12:08;;;;;;;9.65;2.25;;;4.90;99.90;;;;;;5116689;27;20125;-68
2023/05/18 01:14:48;;;;;;;9.18;2.33;;;4.90;99.90;;;;;;5097463;27;20480;-69
2023/05/18 01:17:39;;;;;;;8.32;2.25;;;4.80;99.90;;;;;;5100522;27;20134;-69
2023/05/18 01:20:37;;;;;;;5.88;2.13;;;4.70;99.90;;;;;;5116336;27;20055;-67
2023/05/18 01:23:16;;;;;;;6.18;2.53;;;4.70;99.90;;;;;;5044415;27;20062;-67
2023/05/18 01:25:48;;;;;;;9.25;2.72;;;4.60;99.90;;;;;;5099872;27;20139;-69
2023/05/18 01:28:18;;;;;;;9.48;2.22;;;4.50;99.90;;;;;;5117192;27;20039;-69
2023/05/18 01:30:46;;;;;;;7.50;2.55;;;4.50;99.90;;;;;;5116267;27;20039;-68
2023/05/18 01:33:12;;;;;;;;;;;4.50;99.90;;;;;;5099503;27;20039;-68
2023/05/18 01:35:46;;;;;;;9.18;2.55;;;4.40;99.90;;;;;;5099505;27;19923;-68
2023/05/18 01:38:21;;;;;;;9.38;2.78;;;4.40;99.90;;;;;;5100846;28;20039;-68
2023/05/18 01:40:52;;;;;;;6.35;2.47;;;4.40;99.90;;;;;;5100541;28;20050;-68
2023/05/18 01:43:30;;;;;;;6.45;2.83;;;4.40;99.90;;;;;;5100961;28;20047;-68
2023/05/18 01:46:04;;;;;;;9.48;3.00;;;4.40;99.90;;;;;;5099796;28;20085;-68
2023/05/18 01:48:34;;;;;;;10.55;2.88;;;4.40;99.90;;;;;;5098699;27;20050;-68
2023/05/18 01:51:11;;;;;;;11.93;2.50;;;4.40;99.90;;;;;;5117804;28;20078;-68
2023/05/18 01:53:56;;;;;;;10.15;3.63;;;4.40;99.90;;;;;;5083028;28;20292;-69
2023/05/18 01:56:22;;;;;;;7.13;2.33;;;4.30;99.90;;;;;;5115965;28;20107;-68
2023/05/18 01:58:49;;;;;;;9.30;2.60;;;4.30;99.90;;;;;;5099095;28;20126;-68
2023/05/18 02:01:19;;;;;;;9.38;2.75;;;4.30;99.90;;;;;;5134758;28;20115;-67
2023/05/18 02:03:44;;;;;;;7.97;2.45;;;4.30;99.90;;;;;;5098617;28;20042;-68
2023/05/18 02:06:10;;;;;;;7.93;2.33;;;4.20;99.90;;;;;;5082241;28;20100;-69
2023/05/18 02:08:36;;;;;;;6.80;2.33;;;4.20;99.90;;;;;;5116045;28;20090;-69
2023/05/18 02:11:02;;;;;;;10.23;2.58;;;4.30;99.90;;;;;;5083076;28;20050;-69
2023/05/18 02:13:28;;;;;;;9.13;2.70;;;4.30;99.90;;;;;;5134041;28;20035;-69
2023/05/18 02:15:54;;;;;;;8.45;3.08;;;4.30;99.90;;;;;;5115861;28;20039;-67
2023/05/18 02:18:20;;;;;;;9.18;2.28;;;4.30;99.90;;;;;;5098704;28;20039;-69
2023/05/18 02:20:47;;;;;;;9.05;2.10;;;4.30;99.90;;;;;;5116802;28;20066;-68
2023/05/18 02:23:14;;;;;;;6.63;2.38;;;4.30;99.90;;;;;;5133944;28;20495;-68
2023/05/18 02:25:43;;;;;;;8.88;2.47;;;4.30;99.90;;;;;;5115831;28;20055;-68
2023/05/18 02:28:09;;;;;;;7.35;2.30;;;4.40;99.90;;;;;;5098985;28;20047;-68
2023/05/18 02:30:35;;;;;;;14.57;2.70;;;4.40;99.90;;;;;;5133873;28;20043;-68
2023/05/18 02:33:03;;;;;;;7.70;2.25;;;4.40;99.90;;;;;;5098894;28;20047;-68
2023/05/18 02:35:29;;;;;;;12.15;2.63;;;4.40;99.90;;;;;;5099173;27;20073;-68
2023/05/18 02:37:57;;;;;;;9.20;2.50;;;4.40;99.90;;;;;;5085728;27;20040;-68
2023/05/18 02:40:22;;;;;;;11.05;3.30;;;4.40;99.90;;;;;;5085563;27;20100;-68
2023/05/18 02:42:48;;;;;;;7.10;2.53;;;4.40;99.90;;;;;;5119202;27;20047;-69
2023/05/18 02:45:14;;;;;;;7.53;2.53;;;4.40;99.90;;;;;;5102647;27;20057;-68
2023/05/18 02:47:42;;;;;;;7.97;2.90;;;4.40;99.90;;;;;;5119235;27;20138;-68
2023/05/18 02:50:10;;;;;;;10.32;2.95;;;4.40;99.90;;;;;;5119316;27;20058;-68
2023/05/18 02:52:35;;;;;;;6.40;2.42;;;4.30;99.90;;;;;;5119323;27;20058;-69
2023/05/18 02:55:01;;;;;;;9.98;3.15;;;4.30;99.90;;;;;;5119103;27;20104;-69
2023/05/18 02:57:27;;;;;;;8.07;2.47;;;4.30;99.90;;;;;;5137906;27;20043;-69
2023/05/18 02:59:53;;;;;;;14.02;3.40;;;4.20;99.90;;;;;;5102027;27;20043;-69
2023/05/18 03:02:21;;;;;;;9.57;3.10;;;4.20;99.90;;;;;;5102090;27;20067;-69
2023/05/18 03:04:52;;;;;;;8.77;2.80;;;4.20;99.90;;;;;;5138184;27;20101;-69
2023/05/18 03:07:20;;;;;;;8.55;2.60;;;4.30;99.90;;;;;;5119511;27;20043;-72
2023/05/18 03:09:45;;;;;;;10.68;2.58;;;4.30;99.90;;;;;;5101898;27;20043;-69
2023/05/18 03:12:11;;;;;;;10.45;2.97;;;4.30;99.90;;;;;;5085200;27;20095;-67
2023/05/18 03:14:37;;;;;;;8.25;3.17;;;4.20;99.90;;;;;;5101908;27;20054;-68
2023/05/18 03:17:04;;;;;;;10.05;3.05;;;4.30;99.90;;;;;;5102534;27;20051;-68
2023/05/18 03:19:34;;;;;;;8.27;3.22;;;4.30;99.90;;;;;;5102087;27;20075;-68
2023/05/18 03:22:00;;;;;;;12.63;3.22;;;4.40;99.90;;;;;;5101960;27;20047;-68
2023/05/18 03:24:29;;;;;;;11.20;2.92;;;4.30;99.90;;;;;;5101810;27;20124;-68
2023/05/18 03:26:55;;;;;;;14.00;3.40;;;4.40;99.90;;;;;;5119053;27;20404;-69
2023/05/18 03:29:22;;;;;;;11.82;2.72;;;4.40;99.90;;;;;;5101640;27;20089;-73
2023/05/18 03:31:51;;;;;;;9.95;2.50;;;4.40;99.90;;;;;;5102635;27;20040;-69
2023/05/18 03:34:18;;;;;;;9.98;2.53;;;4.40;99.90;;;;;;5084965;27;20051;-68
2023/05/18 03:36:46;;;;;;;10.15;3.05;;;4.50;99.90;;;;;;5101624;27;20085;-68
2023/05/18 03:39:11;;;;;;;;;;;4.50;99.90;;;;;;5101445;27;20047;-68
2023/05/18 03:41:37;;;;;;;10.18;2.70;;;4.50;99.90;;;;;;5100903;27;19926;-69
2023/05/18 03:44:03;;;;;;;9.15;3.05;;;4.50;99.90;;;;;;5136662;27;20095;-69
2023/05/18 03:46:29;;;;;;;11.60;3.42;;;4.50;99.90;;;;;;5117540;27;20480;-69
2023/05/18 03:48:55;;;;;;;8.77;2.60;;;4.50;99.90;;;;;;5118558;27;20380;-69
2023/05/18 03:51:20;;;;;;;11.20;2.97;;;4.60;99.90;;;;;;5084592;27;20077;-68
2023/05/18 03:53:47;;;;;;;11.38;2.75;;;4.70;99.90;;;;;;5101218;27;20043;-68
2023/05/18 03:56:16;;;;;;;14.20;3.13;;;4.60;99.90;;;;;;5118629;27;20063;-68
2023/05/18 03:58:43;;;;;;;9.55;2.65;;;4.70;99.90;;;;;;5100879;27;20066;-68
2023/05/18 04:01:09;;;;;;;15.45;3.45;;;4.70;99.90;;;;;;5118998;27;20496;-68
2023/05/18 04:03:35;;;;;;;10.23;3.05;;;4.80;99.90;;;;;;5085179;27;20396;-68
2023/05/18 04:06:01;;;;;;;10.38;2.65;;;4.80;99.90;;;;;;5100873;27;20043;-67
2023/05/18 04:08:29;;;;;;;12.85;2.70;;;4.80;99.90;;;;;;5084045;27;20051;-70
2023/05/18 04:10:55;;;;;;;10.02;2.90;;;4.80;99.90;;;;;;5117746;27;20050;-68
2023/05/18 04:13:20;;;;;;;9.23;2.83;;;4.80;99.90;;;;;;5084148;27;20107;-68
2023/05/18 04:15:47;;;;;;;12.93;3.17;;;4.80;99.90;;;;;;5083727;27;20472;-68
2023/05/18 04:18:13;;;;;;;13.65;4.45;;;4.80;99.90;;;;;;5083954;27;20046;-68
2023/05/18 04:20:44;;;;;;;16.02;2.97;;;5.00;99.90;;;;;;5101079;27;20047;-68
2023/05/18 04:23:11;;;;;;;8.38;2.95;;;5.00;99.90;;;;;;5117555;27;20039;-68
2023/05/18 04:25:38;;;;;;;12.60;3.33;;;5.10;99.90;;;;;;5100373;27;20096;-68
2023/05/18 04:28:04;;;;;;;7.93;2.17;;;5.20;99.90;;;;;;5117796;27;20385;-69
2023/05/18 04:30:30;;;;;;;11.98;2.90;;;5.30;99.90;;;;;;5100520;27;20170;-69
2023/05/18 04:32:59;;;;;;;10.65;2.97;;;5.40;99.90;;;;;;5083970;27;20392;-69
2023/05/18 04:35:25;;;;;;;10.68;2.78;;;5.50;99.90;;;;;;5084209;27;20050;-68
2023/05/18 04:37:51;;;;;;;9.85;2.40;;;5.60;99.90;;;;;;5100558;27;20105;-68
2023/05/18 04:40:17;;;;;;;12.52;2.80;;;5.70;99.90;;;;;;5117280;27;20476;-69
2023/05/18 04:42:46;;;;;;;12.20;3.58;;;5.80;99.90;;;;;;5117344;27;20054;-68
2023/05/18 04:45:16;;;;;;;12.70;2.92;;;5.90;99.90;;;;;;5101011;27;20088;-69
2023/05/18 04:47:47;;;;;;;15.23;2.70;;;6.00;99.90;;;;;;5099761;27;20083;-69
2023/05/18 04:50:16;;;;;;;16.70;2.65;;;6.00;99.90;;;;;;5135162;27;20047;-69
2023/05/18 04:52:47;;;;;;;14.35;2.72;;;6.10;99.90;;;;;;5099913;27;20054;-68
2023/05/18 04:55:27;;;;;;;11.90;3.05;;;6.10;99.90;;;;;;5117032;27;20123;-69
2023/05/18 04:57:56;;;;;;;10.77;2.88;;;6.20;99.90;;;;;;5133916;27;20156;-68
2023/05/18 05:00:23;;;;;;;8.93;2.92;;;6.30;99.90;;;;;;5082989;27;20051;-69
2023/05/18 05:02:50;;;;;;;17.63;3.30;;;6.30;99.90;;;;;;5116587;27;20107;-69
2023/05/18 05:05:16;;;;;;;14.43;2.73;;;6.40;99.90;;;;;;5116956;27;20134;-69
2023/05/18 05:07:42;;;;;;;16.10;2.88;;;6.50;99.90;;;;;;5066139;27;20122;-68
2023/05/18 05:10:08;;;;;;;10.68;2.72;;;6.60;99.90;;;;;;5116432;27;20039;-68
2023/05/18 05:12:39;;;;;;;11.05;2.78;;;6.60;99.90;;;;;;5099281;27;20557;-68
2023/05/18 05:15:06;;;;;;;9.82;3.03;;;6.70;99.90;;;;;;5116098;27;20133;-70
2023/05/18 05:17:32;;;;;;;11.32;3.42;;;6.80;99.90;;;;;;5099374;27;20039;-68
2023/05/18 05:19:58;;;;;;;10.13;2.60;;;6.90;99.90;;;;;;5099559;27;20046;-69
2023/05/18 05:22:26;;;;;;;11.80;2.20;;;7.00;99.90;;;;;;5099341;27;20049;-69
2023/05/18 05:24:53;;;;;;;12.27;2.80;;;7.10;99.90;;;;;;5134768;27;20102;-69
2023/05/18 05:27:19;;;;;;;12.70;3.08;;;7.20;99.90;;;;;;5099599;27;20089;-69
2023/05/18 05:29:46;;;;;;;13.65;2.47;;;7.30;99.90;;;;;;5082393;27;20079;-69
2023/05/18 05:32:12;;;;;;;;;;;7.40;99.90;;;;;;5134720;27;20042;-69
2023/05/18 05:34:38;;;;;;;9.93;2.47;;;7.50;99.90;;;;;;5115864;27;19923;-71
2023/05/18 05:37:04;;;;;;;14.13;2.22;;;7.70;99.90;;;;;;5099332;27;20139;-68
2023/05/18 05:39:30;;;;;;;10.05;2.00;;;7.80;99.90;;;;;;5116340;27;20085;-67
2023/05/18 05:41:56;;;;;;;11.20;2.63;;;7.90;99.90;;;;;;5099183;27;20392;-68
2023/05/18 05:44:23;;;;;;;12.63;2.17;;;8.00;99.90;;;;;;5100107;27;20129;-68
2023/05/18 05:46:49;;;;;;;9.52;1.80;;;8.10;99.90;;;;;;5116901;27;20127;-68
2023/05/18 05:49:15;;;;;;;13.73;1.98;;;8.20;99.90;;;;;;5134318;28;20101;-68
2023/05/18 05:51:41;;;;;;;11.25;2.17;;;8.30;99.90;;;;;;5099215;28;20051;-73
2023/05/18 05:54:06;;;;;;;10.63;1.85;;;8.40;99.90;;;;;;5134556;28;20043;-69
2023/05/18 05:56:32;;;;;;;11.35;2.13;;;8.50;99.90;;;;;;5116082;28;20050;-68
2023/05/18 05:59:00;;;;;;;15.75;2.20;;;8.50;99.90;;;;;;5099470;28;20126;-69
2023/05/18 06:01:27;;;;;;;6.15;1.48;;;8.60;99.90;;;;;;5082119;28;20047;-68
2023/05/18 06:03:53;;;;;;;9.60;2.60;;;8.70;99.90;;;;;;5115996;28;20055;-67
2023/05/18 06:06:20;;;;;;;10.98;1.63;;;8.80;99.90;;;;;;5099104;28;20131;-68
2023/05/18 06:08:45;;;;;;;12.88;1.98;;;9.00;99.90;;;;;;5116674;28;20064;-69
2023/05/18 06:11:11;;;;;;;8.25;1.70;;;9.10;99.90;;;;;;5102306;27;20043;-70
2023/05/18 06:13:37;;;;;;;7.85;1.58;;;9.20;99.90;;;;;;5120149;27;20100;-69
2023/05/18 06:16:06;;;;;;;9.13;2.00;;;9.30;99.90;;;;;;5103813;27;20047;-68
2023/05/18 06:18:33;;;;;;;6.55;2.00;;;9.50;99.90;;;;;;5138041;27;20046;-68
2023/05/18 06:20:59;;;;;;;14.60;2.53;;;9.50;99.90;;;;;;5120023;27;20039;-68
2023/05/18 06:23:25;;;;;;;6.75;1.73;;;9.70;99.90;;;;;;5138083;27;20039;-68
2023/05/18 06:25:52;;;;;;;9.93;1.77;;;9.70;99.90;;;;;;5102927;27;20051;-69
2023/05/18 06:28:17;;;;;;;10.65;1.40;;;9.70;99.90;;;;;;5120671;27;20396;-69
2023/05/18 06:30:44;;;;;;;13.05;1.38;;;9.70;99.90;;;;;;5102514;27;20046;-70
2023/05/18 06:33:10;;;;;;;10.10;1.77;;;9.80;99.90;;;;;;5138650;27;20379;-69
2023/05/18 06:35:35;;;;;;;10.20;1.80;;;9.90;99.90;;;;;;5102858;27;20065;-68
2023/05/18 06:38:01;;;;;;;10.82;1.90;;;10.00;99.90;;;;;;5137620;27;20085;-69
2023/05/18 06:40:27;;;;;;;6.82;1.10;;;10.00;99.90;;;;;;5119362;27;20097;-69
2023/05/18 06:42:53;;;;;;;8.25;1.30;;;10.00;99.90;;;;;;5138160;27;20047;-69
2023/05/18 06:45:19;;;;;;;6.53;1.30;;;10.00;99.90;;;;;;5119594;27;20395;-68
2023/05/18 06:47:45;;;;;;;9.45;1.60;;;10.10;99.90;;;;;;5138065;27;20111;-68
2023/05/18 06:50:11;;;;;;;9.32;1.50;;;10.10;99.90;;;;;;5115537;28;20051;-69
2023/05/18 06:52:37;;;;;;;6.63;1.38;;;10.20;99.90;;;;;;5117041;28;20055;-69
2023/05/18 06:55:04;;;;;;;9.53;1.33;;;10.10;99.90;;;;;;5099712;28;20134;-69
2023/05/18 06:57:30;;;;;;;6.07;1.42;;;10.30;99.90;;;;;;5117113;28;20391;-69
2023/05/18 06:59:56;;;;;;;8.40;1.45;;;10.40;99.90;;;;;;5116518;28;20051;-68
2023/05/18 07:02:22;;;;;;;10.32;1.67;;;10.50;99.90;;;;;;5098511;28;20050;-70
2023/05/18 07:04:48;;;;;;;6.68;1.20;;;10.60;99.90;;;;;;5116663;28;20043;-70
2023/05/18 07:07:15;;;;;;;11.57;1.30;;;10.70;99.90;;;;;;5117113;28;20090;-70
2023/05/18 07:09:44;;;;;;;6.57;1.35;;;10.80;99.90;;;;;;5115890;28;20065;-70
2023/05/18 07:12:10;;;;;;;5.43;1.10;;;11.00;99.90;;;;;;5098641;28;20071;-69
2023/05/18 07:14:36;;;;;;;6.88;0.95;;;11.10;99.90;;;;;;5099154;28;20370;-68
2023/05/18 07:17:02;;;;;;;9.98;1.13;;;11.20;99.90;;;;;;5097786;28;20105;-69
2023/05/18 07:19:28;;;;;;;9.90;1.08;;;11.20;99.90;;;;;;5115149;28;20067;-69
2023/05/18 07:21:55;;;;;;;7.03;1.45;;;11.30;99.90;;;;;;5114486;28;20051;-71
2023/05/18 07:24:21;;;;;;;6.53;1.13;;;11.30;99.90;;;;;;5115315;28;20499;-68
2023/05/18 07:26:47;;;;;;;7.70;1.10;;;11.40;99.90;;;;;;5116354;28;20397;-72
2023/05/18 07:29:13;;;;;;;8.60;1.52;;;11.40;99.90;;;;;;5098257;28;20048;-71
2023/05/18 07:31:39;;;;;;;8.07;1.30;;;11.40;99.90;;;;;;5098405;28;20532;-69
2023/05/18 07:34:06;;;;;;;9.25;1.40;;;11.40;99.90;;;;;;5115514;28;20101;-70
2023/05/18 07:36:33;;;;;;;9.95;1.33;;;11.50;99.90;;;;;;5115902;28;20079;-69
2023/05/18 07:38:59;;;;;;;12.87;1.90;;;11.60;99.90;;;;;;5115765;28;20036;-69
2023/05/18 07:41:26;;;;;;;13.57;1.40;;;11.20;98.80;;;;;;5097823;28;20493;-69
2023/05/18 07:43:53;;;;;;;8.98;1.42;;;11.30;98.30;;;;;;5115718;28;20051;-69
2023/05/18 07:46:19;;;;;;;8.60;1.45;;;11.50;99.50;;;;;;5097687;28;20399;-69
2023/05/18 07:48:45;;;;;;;9.63;1.40;;;11.90;99.90;;;;;;5115694;27;20052;-69
2023/05/18 07:51:11;;;;;;;6.93;1.25;;;12.00;99.20;;;;;;5118291;27;20097;-70
2023/05/18 07:53:37;;;;;;;9.18;1.80;;;12.00;99.30;;;;;;5117502;27;20484;-73
2023/05/18 07:56:04;;;;;;;7.35;1.27;;;12.10;99.10;;;;;;5117839;27;20083;-69
2023/05/18 07:58:30;;;;;;;;;;;12.20;98.30;;;;;;5100776;27;20035;-69
2023/05/18 08:00:56;;;;;;;7.87;1.57;;;12.10;98.20;;;;;;5118164;27;19923;-69
2023/05/18 08:03:22;;;;;;;9.30;1.50;;;12.30;98.20;;;;;;5101486;27;20047;-69
2023/05/18 08:05:48;;;;;;;9.48;1.60;;;11.20;97.40;;;;;;5118101;27;20084;-69
2023/05/18 08:08:17;;;;;;;11.90;1.77;;;11.20;98.10;;;;;;5118061;27;20043;-69
2023/05/18 08:10:43;;;;;;;5.47;1.20;;;11.60;98.10;;;;;;5117620;27;20099;-69
2023/05/18 08:13:09;;;;;;;5.75;1.05;;;11.70;98.20;;;;;;5100249;27;20042;-69
2023/05/18 08:15:36;;;;;;;10.23;1.52;;;12.00;98.50;;;;;;5100045;27;20054;-69
2023/05/18 08:18:01;;;;;;;6.85;1.60;;;12.20;98.60;;;;;;5135477;27;20078;-70
2023/05/18 08:20:29;;;;;;;8.10;1.60;;;12.30;98.00;;;;;;5136104;27;20103;-69
2023/05/18 08:22:55;;;;;;;9.63;1.70;;;12.40;97.40;;;;;;5100407;27;20133;-68
2023/05/18 08:25:21;;;;;;;12.15;2.03;;;12.50;97.30;;;;;;5136059;27;20177;-70
2023/05/18 08:27:48;;;;;;;6.35;1.45;;;12.60;97.20;;;;;;5100633;27;20043;-69
2023/05/18 08:30:14;;;;;;;9.10;1.20;;;12.60;97.00;;;;;;5117871;27;20039;-69
2023/05/18 08:32:40;;;;;;;5.82;1.27;;;12.60;96.50;;;;;;5117330;27;20373;-68
2023/05/18 08:35:07;;;;;;;9.05;1.75;;;12.70;96.40;;;;;;5100221;27;20054;-69
2023/05/18 08:37:33;;;;;;;;;;;12.70;96.30;;;;;;5100841;27;20042;-68
2023/05/18 08:39:59;;;;;;;11.50;1.95;;;12.80;95.90;;;;;;5100331;27;19919;-68
2023/05/18 08:42:45;;;;;;;6.53;1.60;;;12.60;95.80;;;;;;5116838;27;20487;-68
2023/05/18 08:45:21;;;;;;;6.20;1.55;;;12.50;96.10;;;;;;5116733;27;20049;-69
2023/05/18 08:47:49;;;;;;;8.30;1.50;;;12.50;95.40;;;;;;5135498;27;20143;-71
2023/05/18 08:50:19;;;;;;;6.65;1.50;;;12.40;95.30;;;;;;5134759;27;20062;-73
2023/05/18 08:52:53;;;;;;;7.65;2.03;;;12.30;95.50;;;;;;5117216;27;20122;-71
2023/05/18 08:55:19;;;;;;;7.05;1.25;;;12.20;95.80;;;;;;5134940;27;20096;-70
2023/05/18 08:57:54;;;;;;;9.95;1.90;;;12.00;95.90;;;;;;5134917;27;20036;-71
2023/05/18 09:00:21;;;;;;;8.00;1.58;;;11.60;95.10;;;;;;5100578;27;20047;-72
2023/05/18 09:02:47;;;;;;;9.05;1.92;;;11.90;96.10;;;;;;5117502;27;20047;-70
2023/05/18 09:05:15;;;;;;;9.73;1.77;;;11.90;96.20;;;;;;5099725;27;20046;-72
2023/05/18 09:07:42;;;;;;;7.50;1.30;;;12.00;95.30;;;;;;5134718;27;20138;-71
2023/05/18 09:10:14;;;;;;;11.38;1.63;;;12.00;95.90;;;;;;5134685;27;20046;-73
2023/05/18 09:12:42;;;;;;;8.35;1.63;;;12.00;95.90;;;;;;5099986;27;20484;-71
2023/05/18 09:15:10;;;;;;;8.90;1.55;;;12.20;96.20;;;;;;5099433;27;20062;-75
2023/05/18 09:17:36;;;;;;;11.98;1.83;;;12.30;96.30;;;;;;5134519;27;20055;-72
2023/05/18 09:20:05;;;;;;;11.75;1.80;;;12.10;95.20;;;;;;5116551;27;20396;-72
2023/05/18 09:22:39;;;;;;;11.00;1.67;;;12.30;96.00;;;;;;5117026;27;20109;-73
2023/05/18 09:25:09;;;;;;;8.15;1.75;;;12.40;96.00;;;;;;5116812;27;20077;-72
2023/05/18 09:27:36;;;;;;;9.27;1.80;;;12.10;95.60;;;;;;5116006;27;20039;-73
2023/05/18 09:30:02;;;;;;;13.45;1.63;;;12.20;95.50;;;;;;5134451;27;20054;-73
2023/05/18 09:32:33;;;;;;;9.45;1.90;;;12.20;94.90;;;;;;5134331;27;20051;-71
2023/05/18 09:35:03;;;;;;;10.13;1.75;;;11.70;95.30;;;;;;5135111;27;20078;-72
2023/05/18 09:37:30;;;;;;;8.25;1.52;;;11.90;95.10;;;;;;5099216;27;20050;-72
2023/05/18 09:40:07;;;;;;;6.82;1.67;;;11.80;95.30;;;;;;5116211;27;20446;-72
2023/05/18 09:42:41;;;;;;;9.25;1.85;;;12.00;95.40;;;;;;5116969;27;20492;-72
2023/05/18 09:45:19;;;;;;;8.75;1.60;;;12.30;95.90;;;;;;5099758;27;20047;-71
2023/05/18 09:47:45;;;;;;;6.88;1.40;;;12.60;96.10;;;;;;5116214;27;20044;-72
2023/05/18 09:50:12;;;;;;;7.30;1.50;;;12.50;94.50;;;;;;5116054;28;20392;-72
2023/05/18 09:52:41;;;;;;;7.93;1.65;;;12.80;95.40;;;;;;5134545;27;20059;-72
2023/05/18 09:55:07;;;;;;;6.38;1.60;;;12.80;94.60;;;;;;5134205;28;20039;-72
2023/05/18 09:57:42;;;;;;;7.43;1.23;;;13.00;95.30;;;;;;5099034;28;20040;-71
2023/05/18 10:00:10;;;;;;;7.82;1.88;;;13.30;94.70;;;;;;5116955;28;20043;-73
2023/05/18 10:02:40;;;;;;;6.45;1.58;;;13.40;95.10;;;;;;5115901;28;20054;-72
2023/05/18 10:05:21;;;;;;;7.53;1.33;;;13.50;95.00;;;;;;5134213;28;20057;-72
2023/05/18 10:07:48;;;;;;;12.38;1.85;;;13.30;93.90;;;;;;5134314;28;20047;-70
2023/05/18 10:10:16;;;;;;;;;;;13.00;94.00;;;;;;5116436;28;20043;-71
2023/05/18 10:12:42;;;;;;;9.65;2.42;;;13.20;94.80;;;;;;5099129;28;19976;-71
2023/05/18 10:15:09;;;;;;;9.13;1.83;;;13.30;94.90;;;;;;5133867;28;20502;-71
2023/05/18 10:17:36;;;;;;;;;;;12.80;94.20;;;;;;5099864;28;20274;-72
2023/05/18 10:20:06;;;;;;;8.38;1.70;;;12.90;93.70;;;;;;5098980;28;20048;-71
2023/05/18 10:22:34;;;;;;;5.55;1.50;;;13.30;94.60;;;;;;5116330;28;20103;-71
2023/05/18 10:25:03;;;;;;;6.82;1.70;;;13.50;94.70;;;;;;5134053;28;20047;-69
2023/05/18 10:27:34;;;;;;;8.75;1.63;;;13.60;93.70;;;;;;5115245;28;20514;-70
2023/05/18 10:30:03;;;;;;;8.90;1.75;;;13.60;93.90;;;;;;5116138;28;20051;-72
2023/05/18 10:32:31;;;;;;;6.05;1.65;;;13.60;93.10;;;;;;5099311;28;20084;-71
2023/05/18 10:34:58;;;;;;;6.95;1.45;;;13.30;92.90;;;;;;5115793;28;20042;-72
2023/05/18 10:37:29;;;;;;;8.77;1.88;;;13.40;93.50;;;;;;5115534;28;20084;-70
2023/05/18 10:39:57;;;;;;;10.60;1.60;;;13.40;92.10;;;;;;5116870;28;20429;-70
2023/05/18 10:42:25;;;;;;;9.55;1.75;;;13.30;92.70;;;;;;5134769;28;20097;-71
2023/05/18 10:44:53;;;;;;;8.95;1.70;;;13.60;93.00;;;;;;5134898;28;20131;-71
2023/05/18 10:47:19;;;;;;;8.80;1.90;;;13.50;92.60;;;;;;5116136;28;20418;-70
2023/05/18 10:49:48;;;;;;;12.57;1.98;;;13.60;93.10;;;;;;5133962;27;20471;-70
2023/05/18 10:52:16;;;;;;;7.47;1.60;;;13.40;92.70;;;;;;5134163;28;20039;-69
2023/05/18 10:54:42;;;;;;;9.23;1.80;;;13.80;93.20;;;;;;5133460;28;20100;-68
2023/05/18 10:57:16;;;;;;;8.73;2.13;;;14.00;93.30;;;;;;5117205;27;20043;-71
2023/05/18 10:59:43;;;;;;;7.93;1.65;;;14.00;93.00;;;;;;5119392;27;20099;-71
2023/05/18 11:02:13;;;;;;;;;;;14.00;91.70;;;;;;5102171;27;20050;-71
2023/05/18 11:04:39;;;;;;;6.07;1.58;;;14.20;92.90;;;;;;5137268;27;19949;-71
2023/05/18 11:07:11;;;;;;;5.80;1.58;;;14.30;93.00;;;;;;5137347;27;20039;-70
2023/05/18 11:09:41;;;;;;;9.70;1.83;;;14.20;92.10;;;;;;5137962;27;20054;-71
2023/05/18 11:12:16;;;;;;;9.23;2.10;;;13.90;91.50;;;;;;5102161;27;20051;-70
2023/05/18 11:14:51;;;;;;;8.82;1.48;;;13.20;91.50;;;;;;5119621;27;20468;-69
2023/05/18 11:17:24;;;;;;;8.18;1.50;;;13.70;92.20;;;;;;5118910;27;20113;-70
2023/05/18 11:20:13;;;;;;;7.90;1.92;;;13.90;92.30;;;;;;5085555;27;20046;-71
2023/05/18 11:22:52;;;;;;;5.32;1.38;;;13.80;92.40;;;;;;5119186;27;20043;-72
2023/05/18 11:25:27;;;;;;;10.50;1.55;;;14.00;92.90;;;;;;5137830;27;20047;-71
2023/05/18 11:28:14;;;;;;;10.00;1.63;;;14.40;92.40;;;;;;5118571;27;20085;-71
2023/05/18 11:30:39;;;;;;;9.05;1.60;;;14.50;91.80;;;;;;5136007;27;20058;-70
2023/05/18 11:33:13;;;;;;;8.10;2.00;;;14.60;91.90;;;;;;5101714;27;20480;-71
2023/05/18 11:35:54;;;;;;;8.40;1.98;;;14.00;91.10;;;;;;5101543;27;20043;-71
2023/05/18 11:38:21;;;;;;;9.05;2.00;;;14.20;92.30;;;;;;5118344;27;20087;-72
2023/05/18 11:40:51;;;;;;;10.30;2.00;;;14.50;92.60;;;;;;5118453;27;20045;-71
2023/05/18 11:43:20;;;;;;;9.77;1.75;;;14.70;92.20;;;;;;5101523;27;20388;-72
2023/05/18 11:45:58;;;;;;;7.70;2.17;;;14.90;92.10;;;;;;5118252;27;20047;-72
2023/05/18 11:48:30;;;;;;;6.45;1.80;;;14.80;91.20;;;;;;5102206;27;20078;-70
2023/05/18 11:50:56;;;;;;;7.57;1.33;;;14.80;91.30;;;;;;5118480;27;20066;-69
2023/05/18 11:53:26;;;;;;;7.18;1.73;;;14.90;91.30;;;;;;5136791;27;20039;-71
2023/05/18 11:55:58;;;;;;;5.25;1.40;;;14.90;91.50;;;;;;5137035;27;20046;-69
2023/05/18 11:58:24;;;;;;;8.27;1.67;;;15.00;91.70;;;;;;5136326;27;20047;-70
2023/05/18 12:00:51;;;;;;;11.45;1.95;;;15.10;91.60;;;;;;5118190;27;20434;-70
2023/05/18 12:03:22;;;;;;;7.78;1.83;;;14.60;90.50;;;;;;5118789;27;20434;-72
2023/05/18 12:05:49;;;;;;;6.20;1.90;;;14.40;89.80;;;;;;5136708;27;20380;-71
2023/05/18 12:08:18;;;;;;;6.32;1.52;;;14.40;90.60;;;;;;5100759;27;20365;-70
2023/05/18 12:10:48;;;;;;;9.88;1.50;;;14.50;91.10;;;;;;5136053;27;20050;-71
2023/05/18 12:13:16;;;;;;;9.73;1.80;;;14.90;91.50;;;;;;5101308;27;20051;-71
2023/05/18 12:15:44;;;;;;;6.78;1.48;;;15.00;90.90;;;;;;5117813;27;20108;-70
2023/05/18 12:18:10;;;;;;;7.65;1.50;;;15.10;90.90;;;;;;5117821;27;20070;-72
2023/05/18 12:20:39;;;;;;;8.18;1.90;;;15.20;90.60;;;;;;5117600;27;20050;-71
2023/05/18 12:23:05;;;;;;;8.27;1.98;;;15.20;91.00;;;;;;5117537;27;20453;-69
2023/05/18 12:25:31;;;;;;;8.13;1.73;;;15.20;91.10;;;;;;5117701;27;20068;-70
2023/05/18 12:27:58;;;;;;;10.73;1.98;;;15.40;91.30;;;;;;5117520;27;20095;-71
2023/05/18 12:30:33;;;;;;;5.20;1.50;;;15.50;91.00;;;;;;5100740;27;20058;-70
2023/05/18 12:33:00;;;;;;;8.43;1.80;;;15.70;91.10;;;;;;5117631;27;20130;-72
2023/05/18 12:35:27;;;;;;;9.85;1.65;;;15.70;90.50;;;;;;5135600;27;20058;-72
2023/05/18 12:38:00;;;;;;;;;;;15.80;90.30;;;;;;5117566;27;20047;-72
2023/05/18 12:40:26;;;;;;;10.77;2.10;;;15.80;90.40;;;;;;5135185;27;19923;-72
2023/05/18 12:42:58;;;;;;;7.32;1.98;;;15.70;90.80;;;;;;5117189;27;20058;-72
2023/05/18 12:45:30;;;;;;;11.20;1.95;;;15.40;90.50;;;;;;5135409;27;20047;-71
2023/05/18 12:48:05;;;;;;;9.73;2.08;;;15.60;90.50;;;;;;5116830;27;20061;-71
2023/05/18 12:50:31;;;;;;;9.15;2.25;;;15.40;89.80;;;;;;5136406;27;20126;-71
2023/05/18 12:52:57;;;;;;;14.25;2.38;;;15.60;90.70;;;;;;5135147;27;20494;-69
2023/05/18 12:55:30;;;;;;;8.98;1.42;;;15.60;90.20;;;;;;5135249;27;20066;-70
2023/05/18 12:58:13;;;;;;;6.50;1.80;;;15.60;90.20;;;;;;5117971;27;20047;-71